createdAt,value
2022-12-09T00:00:21.320Z,1003.04
2022-12-09T00:01:21.566Z,1003.02
2022-12-09T00:02:21.785Z,1003.00
2022-12-09T00:03:23.865Z,1003.04
2022-12-09T00:04:21.642Z,1003.00
2022-12-09T00:05:21.585Z,1002.97
2022-12-09T00:06:21.486Z,1003.00
2022-12-09T00:08:21.953Z,1002.98
2022-12-09T00:09:21.908Z,1002.97
2022-12-09T00:10:21.673Z,1003.01
2022-12-09T00:11:21.947Z,1002.94
2022-12-09T00:12:21.617Z,1002.96
2022-12-09T00:13:21.738Z,1002.93
2022-12-09T00:14:22.076Z,1002.89
2022-12-09T00:15:21.687Z,1002.95
2022-12-09T00:16:21.989Z,1002.93
2022-12-09T00:17:21.817Z,1002.94
2022-12-09T00:19:21.816Z,1002.92
2022-12-09T00:20:21.882Z,1002.91
2022-12-09T00:21:22.189Z,1002.91
2022-12-09T00:22:21.945Z,1002.92
2022-12-09T00:23:21.888Z,1002.93
2022-12-09T00:24:21.964Z,1002.91
2022-12-09T00:25:22.059Z,1002.94
2022-12-09T00:26:21.958Z,1002.93
2022-12-09T00:27:22.009Z,1002.87
2022-12-09T00:28:22.008Z,1002.95
2022-12-09T00:29:22.160Z,1002.88
2022-12-09T00:30:22.153Z,1002.88
2022-12-09T00:31:22.317Z,1002.90
2022-12-09T00:32:22.225Z,1002.90
2022-12-09T00:33:22.131Z,1002.90
2022-12-09T00:34:22.461Z,1002.90
2022-12-09T00:35:22.331Z,1002.88
2022-12-09T00:36:22.205Z,1002.87
2022-12-09T00:37:22.232Z,1002.86
2022-12-09T00:38:22.283Z,1002.90
2022-12-09T00:39:22.355Z,1002.88
2022-12-09T00:40:22.302Z,1002.87
2022-12-09T00:41:22.627Z,1002.87
2022-12-09T00:42:22.484Z,1002.83
2022-12-09T00:43:22.432Z,1002.86
2022-12-09T00:44:22.466Z,1002.84
2022-12-09T00:45:22.537Z,1002.88
2022-12-09T00:46:22.778Z,1002.88
2022-12-09T00:47:22.770Z,1002.87
2022-12-09T00:48:22.805Z,1002.87
2022-12-09T00:49:22.788Z,1002.87
2022-12-09T00:50:22.616Z,1002.84
2022-12-09T00:51:22.583Z,1002.85
2022-12-09T00:52:22.601Z,1002.86
2022-12-09T00:53:22.929Z,1002.87
2022-12-09T00:54:22.960Z,1002.85
2022-12-09T00:55:23.012Z,1002.85
2022-12-09T00:56:22.801Z,1002.89
2022-12-09T00:57:22.851Z,1002.82
2022-12-09T00:58:22.975Z,1002.88
2022-12-09T00:59:22.804Z,1002.88
2022-12-09T01:00:23.045Z,1002.82
2022-12-09T01:01:23.133Z,1002.86
2022-12-09T01:02:23.499Z,1002.83
2022-12-09T01:03:23.000Z,1002.80
2022-12-09T01:04:22.947Z,1002.83
2022-12-09T01:06:23.216Z,1002.84
2022-12-09T01:07:23.214Z,1002.86
2022-12-09T01:09:23.636Z,1002.85
2022-12-09T01:10:23.312Z,1002.87
2022-12-09T01:11:23.198Z,1002.86
2022-12-09T01:12:23.335Z,1002.88
2022-12-09T01:13:23.347Z,1002.90
2022-12-09T01:14:23.139Z,1002.89
2022-12-09T01:15:23.279Z,1002.90
2022-12-09T01:16:23.751Z,1002.89
2022-12-09T01:17:23.424Z,1002.88
2022-12-09T01:18:23.468Z,1002.88
2022-12-09T01:19:23.516Z,1002.86
2022-12-09T01:20:23.587Z,1002.88
2022-12-09T01:21:23.552Z,1002.88
2022-12-09T01:22:23.656Z,1002.89
2022-12-09T01:24:23.648Z,1002.88
2022-12-09T01:25:23.691Z,1002.92
2022-12-09T01:26:23.430Z,1002.86
2022-12-09T01:27:23.784Z,1002.89
2022-12-09T01:28:23.651Z,1002.89
2022-12-09T01:29:23.509Z,1002.90
2022-12-09T01:30:23.862Z,1002.92
2022-12-09T01:31:24.082Z,1002.92
2022-12-09T01:32:23.633Z,1002.89
2022-12-09T01:33:23.768Z,1002.93
2022-12-09T01:34:23.977Z,1002.95
2022-12-09T01:35:23.656Z,1002.93
2022-12-09T01:36:23.999Z,1002.95
2022-12-09T01:38:24.248Z,1002.96
2022-12-09T01:39:23.947Z,1002.96
2022-12-09T01:40:23.804Z,1002.98
2022-12-09T01:41:24.113Z,1002.96
2022-12-09T01:42:24.035Z,1002.91
2022-12-09T01:43:23.847Z,1002.94
2022-12-09T01:44:24.305Z,1002.93
2022-12-09T01:45:24.322Z,1002.95
2022-12-09T01:46:24.167Z,1002.94
2022-12-09T01:48:23.990Z,1002.94
2022-12-09T01:49:24.072Z,1002.96
2022-12-09T01:50:24.144Z,1002.98
2022-12-09T01:51:24.074Z,1002.98
2022-12-09T01:52:24.479Z,1002.99
2022-12-09T01:53:24.093Z,1003.00
2022-12-09T01:54:24.112Z,1002.93
2022-12-09T01:55:24.144Z,1002.97
2022-12-09T01:57:24.516Z,1002.94
2022-12-09T01:58:24.645Z,1002.90
2022-12-09T01:59:24.786Z,1002.87
2022-12-09T02:00:25.066Z,1002.89
2022-12-09T02:01:24.570Z,1002.87
2022-12-09T02:02:24.437Z,1002.86
2022-12-09T02:03:24.821Z,1002.87
2022-12-09T02:04:24.629Z,1002.85
2022-12-09T02:05:24.741Z,1002.83
2022-12-09T02:06:24.740Z,1002.81
2022-12-09T02:07:24.573Z,1002.79
2022-12-09T02:08:24.545Z,1002.77
2022-12-09T02:09:24.577Z,1002.79
2022-12-09T02:10:24.733Z,1002.81
2022-12-09T02:11:24.909Z,1002.78
2022-12-09T02:12:24.876Z,1002.82
2022-12-09T02:13:25.091Z,1002.77
2022-12-09T02:14:24.602Z,1002.77
2022-12-09T02:15:24.630Z,1002.72
2022-12-09T02:16:24.691Z,1002.76
2022-12-09T02:17:25.109Z,1002.70
2022-12-09T02:18:24.715Z,1002.72
2022-12-09T02:19:25.012Z,1002.71
2022-12-09T02:20:24.856Z,1002.67
2022-12-09T02:21:25.047Z,1002.68
2022-12-09T02:22:24.833Z,1002.66
2022-12-09T02:23:25.115Z,1002.67
2022-12-09T02:24:25.129Z,1002.68
2022-12-09T02:25:25.008Z,1002.67
2022-12-09T02:26:25.209Z,1002.67
2022-12-09T02:27:25.194Z,1002.63
2022-12-09T02:28:25.364Z,1002.61
2022-12-09T02:29:25.024Z,1002.62
2022-12-09T02:30:25.192Z,1002.58
2022-12-09T02:31:25.160Z,1002.58
2022-12-09T02:32:25.443Z,1002.60
2022-12-09T02:33:25.146Z,1002.61
2022-12-09T02:34:25.093Z,1002.59
2022-12-09T02:35:25.225Z,1002.58
2022-12-09T02:36:25.170Z,1002.58
2022-12-09T02:37:25.291Z,1002.60
2022-12-09T02:38:25.337Z,1002.59
2022-12-09T02:39:25.211Z,1002.59
2022-12-09T02:40:25.240Z,1002.61
2022-12-09T02:41:25.264Z,1002.57
2022-12-09T02:42:25.325Z,1002.63
2022-12-09T02:43:25.452Z,1002.59
2022-12-09T02:44:25.712Z,1002.63
2022-12-09T02:45:25.569Z,1002.62
2022-12-09T02:46:25.785Z,1002.58
2022-12-09T02:47:25.601Z,1002.61
2022-12-09T02:48:25.576Z,1002.61
2022-12-09T02:49:25.674Z,1002.56
2022-12-09T02:50:25.590Z,1002.57
2022-12-09T02:51:25.774Z,1002.53
2022-12-09T02:52:25.875Z,1002.58
2022-12-09T02:53:25.843Z,1002.60
2022-12-09T02:54:25.599Z,1002.58
2022-12-09T02:55:25.621Z,1002.55
2022-12-09T02:56:25.674Z,1002.55
2022-12-09T02:57:26.040Z,1002.55
2022-12-09T02:58:26.071Z,1002.53
2022-12-09T02:59:25.740Z,1002.51
2022-12-09T03:00:25.742Z,1002.51
2022-12-09T03:01:25.951Z,1002.54
2022-12-09T03:02:26.368Z,1002.50
2022-12-09T03:03:26.233Z,1002.48
2022-12-09T03:04:26.140Z,1002.52
2022-12-09T03:05:26.120Z,1002.50
2022-12-09T03:06:25.874Z,1002.48
2022-12-09T03:07:26.015Z,1002.47
2022-12-09T03:08:26.046Z,1002.49
2022-12-09T03:09:26.049Z,1002.52
2022-12-09T03:10:26.366Z,1002.48
2022-12-09T03:11:26.579Z,1002.49
2022-12-09T03:12:26.028Z,1002.46
2022-12-09T03:13:26.122Z,1002.46
2022-12-09T03:14:26.276Z,1002.48
2022-12-09T03:15:26.365Z,1002.41
2022-12-09T03:16:26.265Z,1002.45
2022-12-09T03:17:26.505Z,1002.40
2022-12-09T03:18:26.744Z,1002.41
2022-12-09T03:19:26.199Z,1002.41
2022-12-09T03:20:26.495Z,1002.42
2022-12-09T03:21:26.293Z,1002.39
2022-12-09T03:22:26.267Z,1002.41
2022-12-09T03:23:26.319Z,1002.41
2022-12-09T03:24:26.331Z,1002.41
2022-12-09T03:25:26.980Z,1002.38
2022-12-09T03:26:26.421Z,1002.36
2022-12-09T03:27:26.553Z,1002.35
2022-12-09T03:28:26.814Z,1002.36
2022-12-09T03:29:26.436Z,1002.37
2022-12-09T03:30:26.782Z,1002.37
2022-12-09T03:31:27.131Z,1002.36
2022-12-09T03:32:26.883Z,1002.32
2022-12-09T03:33:26.631Z,1002.31
2022-12-09T03:35:26.651Z,1002.34
2022-12-09T03:36:26.619Z,1002.32
2022-12-09T03:37:26.695Z,1002.33
2022-12-09T03:38:26.652Z,1002.37
2022-12-09T03:39:26.686Z,1002.30
2022-12-09T03:40:26.975Z,1002.33
2022-12-09T03:41:27.045Z,1002.34
2022-12-09T03:42:26.762Z,1002.33
2022-12-09T03:43:27.029Z,1002.34
2022-12-09T03:44:26.820Z,1002.32
2022-12-09T03:45:26.903Z,1002.29
2022-12-09T03:46:26.976Z,1002.31
2022-12-09T03:47:27.055Z,1002.28
2022-12-09T03:48:26.904Z,1002.27
2022-12-09T03:49:27.071Z,1002.24
2022-12-09T03:50:27.257Z,1002.22
2022-12-09T03:51:27.362Z,1002.21
2022-12-09T03:52:27.105Z,1002.27
2022-12-09T03:53:27.030Z,1002.23
2022-12-09T03:54:27.042Z,1002.28
2022-12-09T03:55:27.162Z,1002.22
2022-12-09T03:56:27.197Z,1002.24
2022-12-09T03:57:27.843Z,1002.22
2022-12-09T03:58:27.279Z,1002.23
2022-12-09T03:59:27.458Z,1002.27
2022-12-09T04:00:27.580Z,1002.25
2022-12-09T04:01:27.499Z,1002.25
2022-12-09T04:02:27.488Z,1002.26
2022-12-09T04:03:27.513Z,1002.28
2022-12-09T04:05:27.837Z,1002.19
2022-12-09T04:06:27.406Z,1002.23
2022-12-09T04:07:27.362Z,1002.19
2022-12-09T04:08:27.832Z,1002.18
2022-12-09T04:09:27.799Z,1002.19
2022-12-09T04:10:27.722Z,1002.16
2022-12-09T04:11:27.461Z,1002.16
2022-12-09T04:13:28.207Z,1002.16
2022-12-09T04:14:27.655Z,1002.11
2022-12-09T04:15:27.647Z,1002.12
2022-12-09T04:16:27.819Z,1002.12
2022-12-09T04:17:27.986Z,1002.13
2022-12-09T04:18:28.090Z,1002.13
2022-12-09T04:19:27.957Z,1002.11
2022-12-09T04:20:28.033Z,1002.11
2022-12-09T04:21:27.984Z,1002.12
2022-12-09T04:22:28.098Z,1002.13
2022-12-09T04:23:27.948Z,1002.11
2022-12-09T04:24:27.778Z,1002.12
2022-12-09T04:25:27.803Z,1002.12
2022-12-09T04:26:28.168Z,1002.12
2022-12-09T04:27:28.207Z,1002.13
2022-12-09T04:28:27.938Z,1002.11
2022-12-09T04:29:28.178Z,1002.10
2022-12-09T04:30:28.104Z,1002.06
2022-12-09T04:31:28.154Z,1002.08
2022-12-09T04:32:28.174Z,1002.03
2022-12-09T04:33:28.326Z,1002.06
2022-12-09T04:34:28.413Z,1002.04
2022-12-09T04:35:28.309Z,1002.05
2022-12-09T04:36:28.428Z,1002.04
2022-12-09T04:37:28.277Z,1002.04
2022-12-09T04:38:28.237Z,1002.03
2022-12-09T04:39:28.282Z,1002.02
2022-12-09T04:41:29.797Z,1002.01
2022-12-09T04:42:28.615Z,1002.01
2022-12-09T04:43:28.464Z,1001.97
2022-12-09T04:44:28.509Z,1002.00
2022-12-09T04:45:28.611Z,1002.01
2022-12-09T04:46:28.416Z,1002.03
2022-12-09T04:47:28.789Z,1002.00
2022-12-09T04:48:28.561Z,1002.06
2022-12-09T04:49:28.384Z,1001.99
2022-12-09T04:50:28.403Z,1002.01
2022-12-09T04:51:31.356Z,1001.98
2022-12-09T04:52:28.557Z,1001.98
2022-12-09T04:53:28.601Z,1001.98
2022-12-09T04:54:28.948Z,1002.00
2022-12-09T04:55:28.639Z,1001.99
2022-12-09T04:56:28.745Z,1002.03
2022-12-09T04:57:28.579Z,1002.00
2022-12-09T04:58:28.606Z,1002.02
2022-12-09T04:59:28.900Z,1002.04
2022-12-09T05:00:29.107Z,1002.05
2022-12-09T05:01:31.584Z,1002.00
2022-12-09T05:02:28.894Z,1002.00
2022-12-09T05:03:28.902Z,1002.03
2022-12-09T05:04:29.009Z,1002.06
2022-12-09T05:05:29.198Z,1001.99
2022-12-09T05:06:29.438Z,1002.05
2022-12-09T05:07:29.166Z,1002.00
2022-12-09T05:08:31.632Z,1001.97
2022-12-09T05:09:29.447Z,1001.99
2022-12-09T05:10:29.030Z,1001.98
2022-12-09T05:11:29.066Z,1002.00
2022-12-09T05:12:29.146Z,1001.98
2022-12-09T05:13:29.249Z,1001.97
2022-12-09T05:14:29.167Z,1002.06
2022-12-09T05:15:29.707Z,1002.04
2022-12-09T05:16:29.509Z,1002.00
2022-12-09T05:17:29.324Z,1002.05
2022-12-09T05:18:29.754Z,1002.04
2022-12-09T05:19:29.454Z,1002.04
2022-12-09T05:20:29.357Z,1002.04
2022-12-09T05:21:29.385Z,1002.04
2022-12-09T05:22:29.439Z,1002.05
2022-12-09T05:23:29.301Z,1002.04
2022-12-09T05:24:29.581Z,1002.00
2022-12-09T05:25:29.350Z,1001.99
2022-12-09T05:26:29.518Z,1001.94
2022-12-09T05:27:29.369Z,1001.94
2022-12-09T05:28:29.703Z,1001.97
2022-12-09T05:29:29.430Z,1001.91
2022-12-09T05:30:29.467Z,1001.94
2022-12-09T05:31:29.801Z,1001.93
2022-12-09T05:32:29.861Z,1001.91
2022-12-09T05:34:29.893Z,1001.94
2022-12-09T05:35:29.947Z,1001.94
2022-12-09T05:36:29.732Z,1001.89
2022-12-09T05:37:29.756Z,1001.89
2022-12-09T05:38:29.932Z,1001.83
2022-12-09T05:39:29.817Z,1001.87
2022-12-09T05:40:29.783Z,1001.82
2022-12-09T05:41:29.761Z,1001.83
2022-12-09T05:42:29.986Z,1001.83
2022-12-09T05:43:30.126Z,1001.83
2022-12-09T05:44:29.719Z,1001.82
2022-12-09T05:45:30.114Z,1001.81
2022-12-09T05:46:30.094Z,1001.83
2022-12-09T05:47:30.230Z,1001.84
2022-12-09T05:48:30.218Z,1001.81
2022-12-09T05:49:30.355Z,1001.78
2022-12-09T05:50:30.337Z,1001.81
2022-12-09T05:51:30.134Z,1001.81
2022-12-09T05:52:30.215Z,1001.84
2022-12-09T05:53:30.422Z,1001.86
2022-12-09T05:54:30.334Z,1001.84
2022-12-09T05:55:30.168Z,1001.84
2022-12-09T05:56:30.230Z,1001.84
2022-12-09T05:57:30.432Z,1001.84
2022-12-09T05:58:30.300Z,1001.81
2022-12-09T05:59:30.104Z,1001.84
2022-12-09T06:00:30.383Z,1001.85
2022-12-09T06:01:30.308Z,1001.80
2022-12-09T06:02:30.568Z,1001.79
2022-12-09T06:03:30.640Z,1001.79
2022-12-09T06:04:30.704Z,1001.80
2022-12-09T06:05:30.825Z,1001.81
2022-12-09T06:06:31.050Z,1001.76
2022-12-09T06:07:30.726Z,1001.80
2022-12-09T06:08:30.590Z,1001.73
2022-12-09T06:09:30.758Z,1001.74
2022-12-09T06:10:30.534Z,1001.71
2022-12-09T06:11:30.939Z,1001.71
2022-12-09T06:12:30.512Z,1001.70
2022-12-09T06:13:30.494Z,1001.71
2022-12-09T06:15:33.406Z,1001.72
2022-12-09T06:17:30.835Z,1001.68
2022-12-09T06:18:30.717Z,1001.69
2022-12-09T06:19:31.065Z,1001.67
2022-12-09T06:20:30.778Z,1001.68
2022-12-09T06:21:30.673Z,1001.68
2022-12-09T06:22:31.020Z,1001.68
2022-12-09T06:23:30.984Z,1001.64
2022-12-09T06:24:30.864Z,1001.65
2022-12-09T06:25:30.975Z,1001.66
2022-12-09T06:26:30.865Z,1001.64
2022-12-09T06:27:30.856Z,1001.68
2022-12-09T06:28:30.873Z,1001.64
2022-12-09T06:29:30.834Z,1001.64
2022-12-09T06:31:31.235Z,1001.62
2022-12-09T06:32:31.062Z,1001.65
2022-12-09T06:33:54.106Z,1001.64
2022-12-09T06:34:31.321Z,1001.62
2022-12-09T06:35:31.180Z,1001.62
2022-12-09T06:36:31.411Z,1001.62
2022-12-09T06:37:31.409Z,1001.64
2022-12-09T06:38:31.228Z,1001.64
2022-12-09T06:39:31.416Z,1001.64
2022-12-09T06:40:31.133Z,1001.63
2022-12-09T06:41:31.115Z,1001.65
2022-12-09T06:42:31.297Z,1001.58
2022-12-09T06:43:31.253Z,1001.61
2022-12-09T06:44:31.475Z,1001.63
2022-12-09T06:45:31.564Z,1001.64
2022-12-09T06:46:31.449Z,1001.67
2022-12-09T06:47:31.493Z,1001.70
2022-12-09T06:48:31.562Z,1001.70
2022-12-09T06:49:33.723Z,1001.76
2022-12-09T06:50:31.446Z,1001.72
2022-12-09T06:51:31.991Z,1001.71
2022-12-09T06:52:31.673Z,1001.74
2022-12-09T06:53:31.743Z,1001.74
2022-12-09T06:54:31.546Z,1001.75
2022-12-09T06:55:31.706Z,1001.74
2022-12-09T06:56:31.847Z,1001.74
2022-12-09T06:57:31.750Z,1001.76
2022-12-09T06:59:31.660Z,1001.77
2022-12-09T07:00:31.723Z,1001.74
2022-12-09T07:01:31.631Z,1001.80
2022-12-09T07:03:32.273Z,1001.80
2022-12-09T07:04:32.310Z,1001.81
2022-12-09T07:05:32.317Z,1001.83
2022-12-09T07:06:31.999Z,1001.88
2022-12-09T07:07:31.924Z,1001.83
2022-12-09T07:08:32.224Z,1001.82
2022-12-09T07:09:31.965Z,1001.87
2022-12-09T07:10:32.651Z,1001.90
2022-12-09T07:11:32.069Z,1001.86
2022-12-09T07:12:32.186Z,1001.83
2022-12-09T07:13:31.946Z,1001.86
2022-12-09T07:14:31.995Z,1001.84
2022-12-09T07:15:32.165Z,1001.86
2022-12-09T07:16:32.109Z,1001.85
2022-12-09T07:17:32.050Z,1001.85
2022-12-09T07:18:32.200Z,1001.82
2022-12-09T07:19:32.186Z,1001.83
2022-12-09T07:20:32.187Z,1001.79
2022-12-09T07:21:32.137Z,1001.82
2022-12-09T07:22:32.456Z,1001.79
2022-12-09T07:23:32.491Z,1001.83
2022-12-09T07:24:32.241Z,1001.91
2022-12-09T07:25:32.510Z,1001.88
2022-12-09T07:26:32.768Z,1001.89
2022-12-09T07:27:32.242Z,1001.88
2022-12-09T07:28:32.291Z,1001.91
2022-12-09T07:29:33.010Z,1001.93
2022-12-09T07:30:32.714Z,1001.91
2022-12-09T07:31:32.695Z,1001.92
2022-12-09T07:32:32.482Z,1001.91
2022-12-09T07:33:32.734Z,1001.96
2022-12-09T07:34:32.554Z,1001.92
2022-12-09T07:35:32.567Z,1001.92
2022-12-09T07:36:32.937Z,1001.97
2022-12-09T07:37:32.454Z,1001.96
2022-12-09T07:38:32.866Z,1001.99
2022-12-09T07:39:32.984Z,1001.98
2022-12-09T07:40:32.792Z,1002.01
2022-12-09T07:41:33.105Z,1002.04
2022-12-09T07:42:32.576Z,1002.06
2022-12-09T07:43:33.019Z,1002.04
2022-12-09T07:44:33.079Z,1002.05
2022-12-09T07:45:32.807Z,1002.05
2022-12-09T07:46:33.224Z,1002.09
2022-12-09T07:47:33.432Z,1002.05
2022-12-09T07:48:32.875Z,1002.05
2022-12-09T07:49:33.326Z,1002.11
2022-12-09T07:50:33.227Z,1002.09
2022-12-09T07:51:33.331Z,1002.10
2022-12-09T07:52:33.134Z,1002.09
2022-12-09T07:53:33.320Z,1002.11
2022-12-09T07:54:33.208Z,1002.08
2022-12-09T07:55:33.130Z,1002.11
2022-12-09T07:56:33.030Z,1002.08
2022-12-09T07:57:32.978Z,1002.08
2022-12-09T07:58:33.483Z,1002.11
2022-12-09T07:59:33.095Z,1002.10
2022-12-09T08:00:33.319Z,1002.12
2022-12-09T08:01:33.260Z,1002.11
2022-12-09T08:02:33.165Z,1002.13
2022-12-09T08:03:33.369Z,1002.12
2022-12-09T08:04:33.648Z,1002.12
2022-12-09T08:05:33.709Z,1002.11
2022-12-09T08:06:33.567Z,1002.08
2022-12-09T08:07:35.578Z,1002.08
2022-12-09T08:08:33.794Z,1002.08
2022-12-09T08:09:33.863Z,1002.11
2022-12-09T08:10:33.383Z,1002.09
2022-12-09T08:11:33.524Z,1002.13
2022-12-09T08:12:33.791Z,1002.11
2022-12-09T08:13:34.096Z,1002.13
2022-12-09T08:14:33.595Z,1002.14
2022-12-09T08:15:33.488Z,1002.14
2022-12-09T08:16:33.627Z,1002.20
2022-12-09T08:17:33.688Z,1002.18
2022-12-09T08:18:33.662Z,1002.16
2022-12-09T08:19:34.060Z,1002.17
2022-12-09T08:20:33.779Z,1002.17
2022-12-09T08:21:33.766Z,1002.14
2022-12-09T08:22:33.688Z,1002.19
2022-12-09T08:23:33.762Z,1002.17
2022-12-09T08:24:34.105Z,1002.16
2022-12-09T08:25:34.038Z,1002.14
2022-12-09T08:26:34.010Z,1002.13
2022-12-09T08:27:33.780Z,1002.13
2022-12-09T08:28:34.048Z,1002.17
2022-12-09T08:29:33.965Z,1002.18
2022-12-09T08:30:34.235Z,1002.15
2022-12-09T08:31:40.368Z,1002.18
2022-12-09T08:32:34.321Z,1002.10
2022-12-09T08:33:34.373Z,1002.15
2022-12-09T08:34:34.232Z,1002.13
2022-12-09T08:35:33.948Z,1002.08
2022-12-09T08:36:33.924Z,1002.07
2022-12-09T08:37:33.950Z,1002.06
2022-12-09T08:38:34.021Z,1002.01
2022-12-09T08:39:34.403Z,1002.03
2022-12-09T08:40:34.332Z,1002.02
2022-12-09T08:41:34.070Z,1002.02
2022-12-09T08:42:34.124Z,1002.02
2022-12-09T08:43:34.397Z,1002.02
2022-12-09T08:44:34.299Z,1002.00
2022-12-09T08:45:34.611Z,1002.02
2022-12-09T08:46:34.645Z,1001.99
2022-12-09T08:47:34.587Z,1002.03
2022-12-09T08:48:34.546Z,1002.00
2022-12-09T08:50:34.275Z,1001.99
2022-12-09T08:51:34.857Z,1001.98
2022-12-09T08:52:40.096Z,1001.98
2022-12-09T08:53:35.080Z,1001.99
2022-12-09T08:54:34.570Z,1002.01
2022-12-09T08:55:34.719Z,1002.04
2022-12-09T08:56:34.629Z,1002.01
2022-12-09T08:57:34.496Z,1002.04
2022-12-09T08:58:34.865Z,1002.01
2022-12-09T08:59:37.572Z,1002.05
2022-12-09T09:00:35.059Z,1002.06
2022-12-09T09:01:34.701Z,1002.05
2022-12-09T09:02:34.712Z,1002.04
2022-12-09T09:03:35.143Z,1002.08
2022-12-09T09:04:34.889Z,1002.06
2022-12-09T09:05:35.157Z,1002.04
2022-12-09T09:07:35.518Z,1002.10
2022-12-09T09:08:35.043Z,1002.11
2022-12-09T09:09:34.871Z,1002.14
2022-12-09T09:10:35.044Z,1002.14
2022-12-09T09:11:35.445Z,1002.14
2022-12-09T09:12:42.010Z,1002.20
2022-12-09T09:13:34.854Z,1002.20
2022-12-09T09:14:35.110Z,1002.22
2022-12-09T09:15:35.096Z,1002.23
2022-12-09T09:16:35.389Z,1002.23
2022-12-09T09:17:35.094Z,1002.28
2022-12-09T09:18:35.074Z,1002.24
2022-12-09T09:19:35.166Z,1002.26
2022-12-09T09:20:35.078Z,1002.26
2022-12-09T09:21:35.830Z,1002.33
2022-12-09T09:22:35.312Z,1002.33
2022-12-09T09:23:35.373Z,1002.35
2022-12-09T09:24:35.168Z,1002.34
2022-12-09T09:25:35.192Z,1002.35
2022-12-09T09:27:35.361Z,1002.36
2022-12-09T09:28:35.622Z,1002.38
2022-12-09T09:29:35.627Z,1002.35
2022-12-09T09:30:35.517Z,1002.31
2022-12-09T09:31:35.702Z,1002.35
2022-12-09T09:32:35.412Z,1002.33
2022-12-09T09:33:35.705Z,1002.37
2022-12-09T09:34:35.448Z,1002.33
2022-12-09T09:35:36.024Z,1002.32
2022-12-09T09:36:35.525Z,1002.35
2022-12-09T09:37:35.649Z,1002.32
2022-12-09T09:38:35.402Z,1002.32
2022-12-09T09:39:35.543Z,1002.29
2022-12-09T09:40:35.524Z,1002.29
2022-12-09T09:41:35.653Z,1002.30
2022-12-09T09:42:35.927Z,1002.27
2022-12-09T09:44:36.038Z,1002.31
2022-12-09T09:45:36.018Z,1002.30
2022-12-09T09:46:36.063Z,1002.27
2022-12-09T09:47:38.699Z,1002.26
2022-12-09T09:48:35.904Z,1002.28
2022-12-09T09:49:36.431Z,1002.29
2022-12-09T09:50:36.137Z,1002.27
2022-12-09T09:51:35.837Z,1002.27
2022-12-09T09:52:35.757Z,1002.28
2022-12-09T09:53:35.815Z,1002.25
2022-12-09T09:54:35.815Z,1002.28
2022-12-09T09:55:36.169Z,1002.28
2022-12-09T09:56:36.095Z,1002.30
2022-12-09T09:57:36.026Z,1002.26
2022-12-09T09:58:36.133Z,1002.27
2022-12-09T09:59:35.977Z,1002.26
2022-12-09T10:00:36.169Z,1002.25
2022-12-09T10:01:36.613Z,1002.24
2022-12-09T10:02:36.546Z,1002.25
2022-12-09T10:03:36.585Z,1002.25
2022-12-09T10:04:36.561Z,1002.24
2022-12-09T10:05:36.265Z,1002.22
2022-12-09T10:06:36.443Z,1002.22
2022-12-09T10:07:36.564Z,1002.18
2022-12-09T10:08:36.797Z,1002.25
2022-12-09T10:09:36.382Z,1002.24
2022-12-09T10:10:36.643Z,1002.25
2022-12-09T10:11:36.372Z,1002.24
2022-12-09T10:12:36.854Z,1002.20
2022-12-09T10:13:36.515Z,1002.18
2022-12-09T10:14:37.194Z,1002.21
2022-12-09T10:15:36.777Z,1002.22
2022-12-09T10:16:36.800Z,1002.19
2022-12-09T10:17:36.570Z,1002.21
2022-12-09T10:18:36.853Z,1002.21
2022-12-09T10:19:36.909Z,1002.19
2022-12-09T10:20:36.819Z,1002.17
2022-12-09T10:21:36.804Z,1002.15
2022-12-09T10:22:36.834Z,1002.14
2022-12-09T10:23:37.027Z,1002.16
2022-12-09T10:24:40.433Z,1002.14
2022-12-09T10:25:36.803Z,1002.14
2022-12-09T10:26:36.837Z,1002.13
2022-12-09T10:27:36.640Z,1002.12
2022-12-09T10:28:36.612Z,1002.13
2022-12-09T10:29:36.889Z,1002.11
2022-12-09T10:30:43.876Z,1002.08
2022-12-09T10:31:36.814Z,1002.10
2022-12-09T10:32:37.524Z,1002.09
2022-12-09T10:33:37.182Z,1002.08
2022-12-09T10:34:37.325Z,1002.05
2022-12-09T10:35:37.337Z,1002.07
2022-12-09T10:36:36.888Z,1002.04
2022-12-09T10:37:37.001Z,1002.05
2022-12-09T10:38:37.022Z,1001.99
2022-12-09T10:39:37.560Z,1002.02
2022-12-09T10:40:37.055Z,1002.00
2022-12-09T10:41:37.017Z,1002.02
2022-12-09T10:42:37.343Z,1001.93
2022-12-09T10:43:37.491Z,1001.95
2022-12-09T10:44:37.521Z,1001.95
2022-12-09T10:46:15.121Z,1001.94
2022-12-09T10:46:37.242Z,1001.99
2022-12-09T10:47:37.313Z,1001.95
2022-12-09T10:48:37.553Z,1001.94
2022-12-09T10:49:37.350Z,1001.96
2022-12-09T10:50:37.302Z,1001.95
2022-12-09T10:51:37.410Z,1001.91
2022-12-09T10:52:37.201Z,1001.93
2022-12-09T10:53:37.614Z,1001.92
2022-12-09T10:54:37.314Z,1001.89
2022-12-09T10:55:37.436Z,1001.89
2022-12-09T10:56:37.756Z,1001.89
2022-12-09T10:57:37.546Z,1001.88
2022-12-09T10:58:37.410Z,1001.91
2022-12-09T10:59:37.481Z,1001.93
2022-12-09T11:00:37.735Z,1001.86
2022-12-09T11:01:37.679Z,1001.88
2022-12-09T11:02:37.530Z,1001.89
2022-12-09T11:03:38.036Z,1001.86
2022-12-09T11:04:37.675Z,1001.85
2022-12-09T11:05:37.730Z,1001.84
2022-12-09T11:06:38.093Z,1001.84
2022-12-09T11:07:37.908Z,1001.83
2022-12-09T11:08:38.148Z,1001.79
2022-12-09T11:09:38.555Z,1001.83
2022-12-09T11:10:38.307Z,1001.82
2022-12-09T11:11:37.952Z,1001.77
2022-12-09T11:12:41.057Z,1001.82
2022-12-09T11:13:37.850Z,1001.79
2022-12-09T11:14:38.188Z,1001.81
2022-12-09T11:15:38.206Z,1001.82
2022-12-09T11:16:38.556Z,1001.82
2022-12-09T11:17:38.369Z,1001.80
2022-12-09T11:18:38.858Z,1001.79
2022-12-09T11:19:39.128Z,1001.78
2022-12-09T11:20:38.699Z,1001.75
2022-12-09T11:21:38.681Z,1001.80
2022-12-09T11:22:39.544Z,1001.76
2022-12-09T11:23:38.559Z,1001.72
2022-12-09T11:24:37.995Z,1001.70
2022-12-09T11:25:38.529Z,1001.71
2022-12-09T11:26:38.483Z,1001.70
2022-12-09T11:27:38.191Z,1001.70
2022-12-09T11:28:38.513Z,1001.76
2022-12-09T11:29:38.468Z,1001.73
2022-12-09T11:30:47.111Z,1001.71
2022-12-09T11:31:38.356Z,1001.76
2022-12-09T11:32:38.402Z,1001.79
2022-12-09T11:33:38.495Z,1001.74
2022-12-09T11:34:38.814Z,1001.74
2022-12-09T11:35:38.385Z,1001.77
2022-12-09T11:36:42.273Z,1001.72
2022-12-09T11:37:38.256Z,1001.75
2022-12-09T11:38:38.287Z,1001.75
2022-12-09T11:39:38.307Z,1001.77
2022-12-09T11:40:38.342Z,1001.75
2022-12-09T11:41:38.375Z,1001.75
2022-12-09T11:42:38.677Z,1001.77
2022-12-09T11:43:38.404Z,1001.75
2022-12-09T11:44:38.424Z,1001.71
2022-12-09T11:45:38.457Z,1001.71
2022-12-09T11:46:38.511Z,1001.68
2022-12-09T11:48:21.509Z,1001.67
2022-12-09T11:48:43.475Z,1001.64
2022-12-09T11:49:38.552Z,1001.59
2022-12-09T11:50:38.597Z,1001.62
2022-12-09T11:51:38.596Z,1001.62
2022-12-09T11:52:38.641Z,1001.59
2022-12-09T11:53:38.651Z,1001.59
2022-12-09T11:55:38.992Z,1001.60
2022-12-09T11:56:38.728Z,1001.63
2022-12-09T11:57:38.763Z,1001.59
2022-12-09T11:58:38.787Z,1001.64
2022-12-09T11:59:38.821Z,1001.64
2022-12-09T12:00:38.819Z,1001.64
2022-12-09T12:01:38.883Z,1001.62
2022-12-09T12:02:38.895Z,1001.61
2022-12-09T12:03:38.891Z,1001.63
2022-12-09T12:04:38.917Z,1001.61
2022-12-09T12:05:38.939Z,1001.63
2022-12-09T12:06:38.969Z,1001.64
2022-12-09T12:07:39.036Z,1001.70
2022-12-09T12:08:39.443Z,1001.69
2022-12-09T12:09:39.042Z,1001.69
2022-12-09T12:10:39.072Z,1001.69
2022-12-09T12:11:39.120Z,1001.64
2022-12-09T12:12:39.175Z,1001.64
2022-12-09T12:13:39.159Z,1001.65
2022-12-09T12:14:39.160Z,1001.65
2022-12-09T12:15:39.182Z,1001.62
2022-12-09T12:16:39.933Z,1001.60
2022-12-09T12:17:39.282Z,1001.57
2022-12-09T12:18:39.263Z,1001.57
2022-12-09T12:19:39.289Z,1001.59
2022-12-09T12:20:39.307Z,1001.61
2022-12-09T12:21:39.648Z,1001.60
2022-12-09T12:22:39.370Z,1001.58
2022-12-09T12:23:39.390Z,1001.61
2022-12-09T12:24:39.434Z,1001.61
2022-12-09T12:25:39.427Z,1001.59
2022-12-09T12:26:39.456Z,1001.55
2022-12-09T12:27:39.609Z,1001.52
2022-12-09T12:28:39.508Z,1001.52